Time;durP1;ratioP1;P1;durP2;ratioP2;P2;SDS_P1;SDS_P2;PMS_P1;PMS_P2;Temp;Humidity;BMP_temperature;BMP_pressure;BME280_temperature;BME280_humidity;BME280_pressure;Samples;Min_cycle;Max_cycle;Signal;HPM_P1;HPM_P2
2020/12/29 00:00:10;;;;;;;19.38;8.45;;;3.00;99.90;;;;;;5065017;28;20040;-64
2020/12/29 00:02:36;;;;;;;19.15;7.25;;;2.80;99.90;;;;;;5064614;28;20047;-63
2020/12/29 00:05:05;;;;;;;17.88;7.63;;;2.70;99.90;;;;;;5072562;28;20028;-64
2020/12/29 00:07:30;;;;;;;19.33;8.48;;;2.50;99.90;;;;;;5071992;28;20062;-66
2020/12/29 00:09:56;;;;;;;19.85;8.25;;;2.40;99.90;;;;;;5073524;28;20756;-64
2020/12/29 00:12:25;;;;;;;19.55;8.45;;;2.30;99.90;;;;;;5070544;28;20036;-63
2020/12/29 00:14:50;;;;;;;21.27;8.85;;;2.20;99.90;;;;;;5053620;28;20055;-64
2020/12/29 00:17:16;;;;;;;20.50;8.45;;;2.20;99.90;;;;;;5069707;28;20036;-65
2020/12/29 00:19:42;;;;;;;21.35;10.50;;;2.30;99.90;;;;;;5063447;28;20036;-64
2020/12/29 00:22:08;;;;;;;21.08;9.63;;;2.30;99.90;;;;;;5061097;28;20024;-64
2020/12/29 00:24:34;;;;;;;21.70;9.57;;;2.40;99.90;;;;;;5070201;28;20025;-64
2020/12/29 00:27:02;;;;;;;22.05;11.35;;;2.40;99.90;;;;;;5068743;28;20476;-64
2020/12/29 00:29:28;;;;;;;24.13;11.68;;;2.50;99.90;;;;;;5067808;28;20029;-63
2020/12/29 00:31:54;;;;;;;22.70;10.95;;;2.50;99.90;;;;;;5065653;28;20480;-68
2020/12/29 00:34:35;;;;;;;24.13;10.05;;;2.60;99.90;;;;;;5065742;28;20024;-67
2020/12/29 00:37:00;;;;;;;23.33;10.50;;;2.60;99.90;;;;;;5061320;28;20032;-67
2020/12/29 00:39:26;;;;;;;23.52;10.13;;;2.70;99.90;;;;;;5055292;28;20389;-68
2020/12/29 00:41:51;;;;;;;23.67;10.45;;;2.80;99.90;;;;;;5071338;28;20032;-67
2020/12/29 00:44:17;;;;;;;25.55;10.85;;;2.80;99.90;;;;;;5060958;28;20451;-64
2020/12/29 00:46:43;;;;;;;22.90;10.70;;;2.80;99.90;;;;;;5058875;28;20069;-67
2020/12/29 00:49:08;;;;;;;22.42;10.05;;;2.80;99.90;;;;;;5073270;28;20118;-67
2020/12/29 00:51:34;;;;;;;18.73;8.95;;;2.70;99.90;;;;;;5043559;28;20040;-67
2020/12/29 00:54:01;;;;;;;21.50;9.95;;;2.60;99.90;;;;;;5047411;28;20021;-68
2020/12/29 00:56:27;;;;;;;21.42;8.88;;;2.40;99.90;;;;;;5052824;28;20142;-66
2020/12/29 00:58:52;;;;;;;22.45;9.70;;;2.30;99.90;;;;;;5058515;28;20116;-67
2020/12/29 01:01:18;;;;;;;21.42;10.30;;;2.20;99.90;;;;;;5062143;28;20114;-67
2020/12/29 01:03:43;;;;;;;21.85;10.32;;;2.00;99.90;;;;;;5067431;28;20036;-67
2020/12/29 01:06:10;;;;;;;22.75;10.07;;;1.90;99.90;;;;;;5067789;28;20104;-66
2020/12/29 01:08:36;;;;;;;23.55;10.00;;;1.80;99.90;;;;;;5066836;28;20107;-68
2020/12/29 01:11:01;;;;;;;24.08;10.80;;;1.80;99.90;;;;;;5068573;28;20163;-67
2020/12/29 01:13:29;;;;;;;22.90;10.38;;;1.90;99.90;;;;;;5070732;28;20041;-66
2020/12/29 01:15:55;;;;;;;22.50;11.02;;;2.00;99.90;;;;;;5060673;28;20404;-67
2020/12/29 01:18:21;;;;;;;22.00;10.93;;;2.10;99.90;;;;;;5068135;28;20036;-68
2020/12/29 01:20:50;;;;;;;23.95;11.25;;;2.10;99.90;;;;;;5055782;28;20032;-67
2020/12/29 01:23:17;;;;;;;22.70;11.15;;;2.20;99.90;;;;;;5050784;28;20469;-68
2020/12/29 01:25:43;;;;;;;21.05;10.32;;;2.10;99.90;;;;;;5067071;28;20024;-68
2020/12/29 01:31:09;;;;;;;21.13;9.75;;;2.00;99.90;;;;;;5048866;28;20036;-67
2020/12/29 01:33:35;;;;;;;20.73;8.80;;;1.90;99.90;;;;;;5069155;28;20072;-67
2020/12/29 01:36:01;;;;;;;20.40;8.90;;;1.80;99.90;;;;;;5069029;28;20026;-67
2020/12/29 01:38:26;;;;;;;20.50;8.93;;;1.80;99.90;;;;;;5069752;28;20024;-65
2020/12/29 01:40:58;;;;;;;20.63;9.25;;;1.70;99.90;;;;;;5070623;28;20480;-68
2020/12/29 01:43:28;;;;;;;21.17;9.23;;;1.70;99.90;;;;;;5070339;28;20025;-67
2020/12/29 01:45:53;;;;;;;22.23;9.93;;;1.70;99.90;;;;;;5070311;28;20047;-68
2020/12/29 01:48:19;;;;;;;20.75;9.60;;;1.70;99.90;;;;;;5070027;28;20025;-65
2020/12/29 01:50:44;;;;;;;21.58;9.35;;;1.80;99.90;;;;;;5070263;28;20025;-67
2020/12/29 01:53:10;;;;;;;21.52;9.43;;;1.90;99.90;;;;;;5065731;28;20130;-67
2020/12/29 01:55:36;;;;;;;20.60;9.05;;;1.90;99.90;;;;;;5058618;28;20033;-67
2020/12/29 01:58:02;;;;;;;22.33;10.23;;;2.00;99.90;;;;;;5051462;28;20033;-68
2020/12/29 02:00:31;;;;;;;24.15;9.95;;;2.10;99.90;;;;;;5068751;28;20414;-68
2020/12/29 02:03:17;;;;;;;22.30;9.50;;;2.20;99.90;;;;;;5063961;28;20388;-68
2020/12/29 02:05:47;;;;;;;22.45;9.77;;;2.30;99.90;;;;;;5048718;28;20025;-67
2020/12/29 02:08:14;;;;;;;21.90;9.50;;;2.40;99.90;;;;;;5066241;28;20024;-68
2020/12/29 02:10:41;;;;;;;21.57;10.13;;;2.50;99.90;;;;;;5069689;28;20021;-68
2020/12/29 02:13:07;;;;;;;22.48;10.77;;;2.50;99.90;;;;;;5061637;28;20299;-68
2020/12/29 02:15:33;;;;;;;21.35;10.20;;;2.50;99.90;;;;;;5050724;28;20131;-68
2020/12/29 02:17:59;;;;;;;22.58;9.82;;;2.60;99.90;;;;;;5053603;28;20111;-67
2020/12/29 02:20:24;;;;;;;19.35;8.98;;;2.60;99.90;;;;;;5052123;28;20116;-68
2020/12/29 02:22:50;;;;;;;21.30;9.27;;;2.70;99.90;;;;;;5053801;28;20426;-69
2020/12/29 02:25:17;;;;;;;19.90;8.40;;;2.70;99.90;;;;;;5063130;28;20029;-68
2020/12/29 02:27:48;;;;;;;20.48;9.23;;;2.70;99.90;;;;;;5057838;28;20021;-68
2020/12/29 02:30:15;;;;;;;18.88;8.23;;;2.70;99.90;;;;;;5072066;28;20091;-68
2020/12/29 02:32:41;;;;;;;22.17;9.40;;;2.70;99.90;;;;;;5062208;28;20086;-68
2020/12/29 02:35:18;;;;;;;19.65;8.93;;;2.70;99.90;;;;;;5053624;28;20446;-68
2020/12/29 02:37:44;;;;;;;19.92;9.15;;;2.70;99.90;;;;;;5051894;28;20073;-68
2020/12/29 02:40:10;;;;;;;18.25;8.32;;;2.70;99.90;;;;;;5062429;28;20021;-68
2020/12/29 02:42:37;;;;;;;19.45;8.48;;;2.70;99.90;;;;;;5072033;28;20028;-68
2020/12/29 02:45:07;;;;;;;20.15;8.48;;;2.70;99.90;;;;;;5072030;28;20096;-68
2020/12/29 02:47:33;;;;;;;18.50;8.00;;;2.70;99.90;;;;;;5071860;28;20103;-69
2020/12/29 02:49:58;;;;;;;18.02;7.75;;;2.80;99.90;;;;;;5072836;28;20099;-69
2020/12/29 02:52:24;;;;;;;19.20;8.10;;;2.80;99.90;;;;;;5071838;28;20492;-65
2020/12/29 02:54:50;;;;;;;18.65;8.43;;;2.80;99.90;;;;;;5066363;28;20083;-68
2020/12/29 02:57:16;;;;;;;18.45;8.02;;;2.80;99.90;;;;;;5055670;28;20029;-68
2020/12/29 02:59:41;;;;;;;18.83;7.72;;;2.80;99.90;;;;;;5070337;28;20119;-67
2020/12/29 03:02:07;;;;;;;17.63;7.85;;;2.70;99.90;;;;;;5073277;28;20025;-68
2020/12/29 03:04:32;;;;;;;19.85;8.93;;;2.70;99.90;;;;;;5073089;28;20090;-67
2020/12/29 03:06:58;;;;;;;17.83;7.07;;;2.60;99.90;;;;;;5073119;28;20021;-67
2020/12/29 03:09:24;;;;;;;18.45;7.93;;;2.60;99.90;;;;;;5072126;28;20017;-68
2020/12/29 03:11:50;;;;;;;18.20;7.72;;;2.60;99.90;;;;;;5071197;28;20392;-67
2020/12/29 03:14:15;;;;;;;17.92;7.05;;;2.50;99.90;;;;;;5071404;28;20033;-68
2020/12/29 03:16:41;;;;;;;19.40;7.90;;;2.50;99.90;;;;;;5071235;28;20391;-68
2020/12/29 03:19:07;;;;;;;19.73;7.40;;;2.50;99.90;;;;;;5071975;28;20028;-67
2020/12/29 03:21:33;;;;;;;18.17;7.30;;;2.50;99.90;;;;;;5054623;28;20036;-67
2020/12/29 03:23:58;;;;;;;18.35;7.30;;;2.60;99.90;;;;;;5071504;28;20471;-68
2020/12/29 03:26:25;;;;;;;19.25;7.75;;;2.60;99.90;;;;;;5070377;28;20036;-68
2020/12/29 03:28:52;;;;;;;19.70;8.55;;;2.60;99.90;;;;;;5055979;28;20064;-67
2020/12/29 03:31:18;;;;;;;18.77;7.60;;;2.60;99.90;;;;;;5051419;28;20096;-68
2020/12/29 03:33:44;;;;;;;20.80;8.80;;;2.70;99.90;;;;;;5069518;28;20048;-68
2020/12/29 03:36:11;;;;;;;18.70;8.25;;;2.70;99.90;;;;;;5054719;28;20119;-67
2020/12/29 03:38:36;;;;;;;18.63;7.80;;;2.70;99.90;;;;;;5071613;28;20468;-67
2020/12/29 03:41:02;;;;;;;17.77;7.72;;;2.80;99.90;;;;;;5061096;28;20025;-69
2020/12/29 03:43:28;;;;;;;17.27;7.07;;;2.70;99.90;;;;;;5051777;28;20100;-67
2020/12/29 03:45:53;;;;;;;18.88;7.43;;;2.70;99.90;;;;;;5052265;28;20585;-66
2020/12/29 03:48:25;;;;;;;18.77;7.00;;;2.80;99.90;;;;;;5051708;28;20025;-66
2020/12/29 03:50:51;;;;;;;18.55;7.97;;;2.70;99.90;;;;;;5054691;28;20430;-66
2020/12/29 03:53:17;;;;;;;17.90;7.63;;;2.70;99.90;;;;;;5070751;28;20028;-67
2020/12/29 03:55:42;;;;;;;17.63;7.07;;;2.70;99.90;;;;;;5085453;28;20077;-68
2020/12/29 03:58:08;;;;;;;19.08;8.45;;;2.70;99.90;;;;;;5061175;28;20537;-67
2020/12/29 04:00:36;;;;;;;17.98;7.53;;;2.70;99.90;;;;;;5071360;28;20025;-66
2020/12/29 04:03:02;;;;;;;18.17;7.63;;;2.70;99.90;;;;;;5070604;28;20081;-64
2020/12/29 04:05:28;;;;;;;16.73;7.13;;;2.70;99.90;;;;;;5070990;28;20471;-68
2020/12/29 04:07:54;;;;;;;17.13;7.28;;;2.70;99.90;;;;;;5051627;28;20025;-67
2020/12/29 04:10:20;;;;;;;17.67;7.28;;;2.70;99.90;;;;;;5051239;28;20100;-68
2020/12/29 04:12:47;;;;;;;18.15;8.90;;;2.70;99.90;;;;;;5064192;28;20047;-67
2020/12/29 04:15:13;;;;;;;17.95;7.72;;;2.80;99.90;;;;;;5071342;28;20032;-68
2020/12/29 04:17:40;;;;;;;19.38;8.20;;;2.80;99.90;;;;;;5071435;28;20031;-68
2020/12/29 04:20:11;;;;;;;18.33;7.80;;;2.80;99.90;;;;;;5071043;28;20020;-67
2020/12/29 04:22:38;;;;;;;19.65;8.15;;;2.80;99.90;;;;;;5071456;28;20036;-68
2020/12/29 04:25:55;;;;;;;18.15;8.00;;;2.70;99.90;;;;;;5071162;28;20166;-67
2020/12/29 04:28:20;;;;;;;19.75;8.50;;;2.60;99.90;;;;;;5058264;28;20504;-66
2020/12/29 04:30:46;;;;;;;20.60;8.52;;;2.40;99.90;;;;;;5051337;28;20060;-67
2020/12/29 04:33:12;;;;;;;19.52;8.23;;;2.20;99.90;;;;;;5051353;28;20056;-67
2020/12/29 04:35:38;;;;;;;19.67;8.48;;;2.10;99.90;;;;;;5067479;28;20057;-67
2020/12/29 04:38:03;;;;;;;19.35;8.27;;;2.00;99.90;;;;;;5050634;28;20148;-68
2020/12/29 04:40:33;;;;;;;19.15;8.57;;;1.90;99.90;;;;;;5049257;28;20090;-66
2020/12/29 04:42:59;;;;;;;21.85;10.15;;;1.90;99.90;;;;;;5059044;28;20024;-68
2020/12/29 04:45:25;;;;;;;20.92;9.45;;;1.80;99.90;;;;;;5069396;28;20131;-67
2020/12/29 04:47:52;;;;;;;20.88;9.82;;;1.80;99.90;;;;;;5070683;28;20020;-67
2020/12/29 04:50:18;;;;;;;22.42;10.23;;;1.70;99.90;;;;;;5070602;28;20033;-67
2020/12/29 04:52:45;;;;;;;22.45;9.45;;;1.60;99.90;;;;;;5066565;28;20017;-66
2020/12/29 04:55:11;;;;;;;21.98;10.90;;;1.60;99.90;;;;;;5051105;28;20029;-68
2020/12/29 04:57:37;;;;;;;21.27;10.40;;;1.70;99.90;;;;;;5051104;28;20392;-67
2020/12/29 05:00:07;;;;;;;22.70;10.20;;;1.70;99.90;;;;;;5066447;28;20037;-67
2020/12/29 05:02:33;;;;;;;23.75;11.07;;;1.80;99.90;;;;;;5061613;28;20020;-67
2020/12/29 05:04:58;;;;;;;22.95;10.38;;;1.80;99.90;;;;;;5053112;28;20032;-67
2020/12/29 05:07:28;;;;;;;24.00;10.98;;;1.80;99.90;;;;;;5053817;28;20078;-67
2020/12/29 05:09:54;;;;;;;21.77;10.90;;;1.80;99.90;;;;;;5069224;28;20020;-69
2020/12/29 05:12:58;;;;;;;22.88;10.98;;;1.90;99.90;;;;;;5071255;28;20491;-68
2020/12/29 05:15:25;;;;;;;21.70;8.90;;;2.00;99.90;;;;;;5081643;22;20050;-60
2020/12/29 05:17:51;;;;;;;19.27;9.25;;;2.10;99.90;;;;;;5012735;28;20038;-61
2020/12/29 05:20:20;;;;;;;19.50;8.20;;;2.20;99.90;;;;;;5012735;28;20140;-59
2020/12/29 05:22:47;;;;;;;20.23;8.38;;;2.30;99.90;;;;;;5013688;28;20014;-59
2020/12/29 05:25:17;;;;;;;20.45;8.55;;;2.40;99.90;;;;;;5013504;28;20393;-60
2020/12/29 05:27:44;;;;;;;18.20;7.50;;;2.40;99.90;;;;;;5011964;28;20101;-61
2020/12/29 05:30:10;;;;;;;17.33;6.90;;;2.40;99.90;;;;;;4993986;28;20022;-60
2020/12/29 05:32:37;;;;;;;17.80;7.82;;;2.50;99.90;;;;;;5012233;28;20045;-58
2020/12/29 05:35:09;;;;;;;19.50;7.95;;;2.50;99.90;;;;;;5011984;28;20030;-59
2020/12/29 05:37:36;;;;;;;17.67;7.47;;;2.50;99.90;;;;;;5012236;28;20026;-61
2020/12/29 05:40:28;;;;;;;19.90;7.35;;;2.60;99.90;;;;;;4994809;28;20030;-60
2020/12/29 05:42:56;;;;;;;18.17;7.03;;;2.60;99.90;;;;;;4998661;28;20057;-59
2020/12/29 05:45:26;;;;;;;18.17;7.37;;;2.60;99.90;;;;;;5011305;28;20048;-59
2020/12/29 05:48:11;;;;;;;18.73;7.80;;;2.60;99.90;;;;;;5012630;28;20047;-59
2020/12/29 05:54:07;;;;;;;18.67;7.15;;;2.60;99.90;;;;;;4894471;29;20055;-62
2020/12/29 05:56:33;;;;;;;17.73;6.90;;;2.70;99.90;;;;;;5008233;28;20046;-60
2020/12/29 05:59:02;;;;;;;17.55;6.63;;;2.70;99.90;;;;;;5015595;28;20461;-57
2020/12/29 06:01:59;;;;;;;;;;;;;;;;;;;;;
2020/12/29 06:05:12;;;;;;;;;;;;;;;;;;;;;
2020/12/29 06:07:38;;;;;;;17.90;6.55;;;2.60;99.90;;;;;;4995991;28;20042;-57
2020/12/29 06:10:04;;;;;;;18.35;7.85;;;2.60;99.90;;;;;;5015266;28;20470;-60
2020/12/29 06:17:20;;;;;;;17.75;7.28;;;2.50;99.90;;;;;;4896940;29;20029;-59
2020/12/29 06:27:14;;;;;;;19.35;7.88;;;2.30;99.90;;;;;;4823373;29;20102;-61
2020/12/29 06:29:44;;;;;;;19.38;8.30;;;2.20;99.90;;;;;;4869650;29;20052;-63
2020/12/29 06:32:16;;;;;;;19.48;8.30;;;2.20;99.90;;;;;;4927185;28;20042;-63
2020/12/29 06:34:44;;;;;;;16.98;7.97;;;2.20;99.90;;;;;;5015496;28;20026;-63
2020/12/29 06:37:25;;;;;;;18.08;7.80;;;2.20;99.90;;;;;;5015223;28;20042;-62
2020/12/29 06:41:28;;;;;;;;;;;;;;;;;;;;;
2020/12/29 06:47:15;;;;;;;19.95;7.50;;;2.20;99.90;;;;;;4868565;28;20061;-62
2020/12/29 07:04:43;;;;;;;;;;;2.10;99.90;;;;;;4878318;29;20032;-62
2020/12/29 07:07:22;;;;;;;;;;;2.00;99.90;;;;;;4866118;29;19911;-61
2020/12/29 07:09:48;;;;;;;20.80;9.80;;;1.80;99.90;;;;;;4973786;28;19912;-62
2020/12/29 07:12:17;;;;;;;21.23;9.25;;;1.70;99.90;;;;;;5013968;28;20026;-63
2020/12/29 07:14:52;;;;;;;21.80;9.40;;;1.60;99.90;;;;;;5013913;28;20038;-63
2020/12/29 07:17:24;;;;;;;21.25;9.57;;;1.50;99.90;;;;;;5013719;28;20104;-63
2020/12/29 07:19:53;;;;;;;22.45;10.35;;;1.50;99.90;;;;;;4995667;28;20026;-62
2020/12/29 07:22:32;;;;;;;24.83;11.30;;;;;;;;;;4996406;28;20026;-64
2020/12/29 07:25:11;;;;;;;22.08;10.93;;;;;;;;;;5014119;28;20049;-63
2020/12/29 07:33:53;;;;;;;23.35;10.80;;;;;;;;;;5014193;28;20542;-64
2020/12/29 07:36:20;;;;;;;23.67;11.07;;;;;;;;;;5013448;28;20056;-64
2020/12/29 07:38:47;;;;;;;21.48;11.02;;;;;;;;;;5012654;28;20033;-63
2020/12/29 07:41:14;;;;;;;21.15;10.68;;;;;;;;;;5013557;28;20485;-63
2020/12/29 07:43:40;;;;;;;23.03;10.80;;;;;;;;;;5013830;28;20036;-63
2020/12/29 07:52:24;;;;;;;19.95;9.35;;;;;;;;;;4933430;29;20083;-62
2020/12/29 07:55:09;;;;;;;20.65;9.35;;;;;;;;;;5009937;28;20037;-63
2020/12/29 07:57:35;;;;;;;19.75;9.27;;;;;;;;;;5012938;28;20032;-63
2020/12/29 08:00:05;;;;;;;19.52;9.60;;;;;;;;;;5012924;28;20029;-63
2020/12/29 08:02:31;;;;;;;19.17;8.90;;;;;;;;;;5013070;28;20080;-63
2020/12/29 08:05:00;;;;;;;20.40;8.80;;;;;;;;;;4995171;28;20064;-63
2020/12/29 08:10:33;;;;;;;21.42;8.98;;;;;;;;;;4912963;29;20524;-63
2020/12/29 08:13:00;;;;;;;17.67;8.40;;;;;;;;;;5010600;28;20042;-63
2020/12/29 08:15:27;;;;;;;18.33;8.40;;;;;;;;;;5012803;28;20041;-63
2020/12/29 08:18:20;;;;;;;18.77;8.55;;;;;;;;;;5012561;28;20523;-63
2020/12/29 08:20:49;;;;;;;28.73;10.43;;;;;;;;;;5008399;28;20583;-60
2020/12/29 08:23:16;;;;;;;20.23;9.27;;;;;;;;;;4995208;28;20029;-62
2020/12/29 08:29:04;;;;;;;20.17;9.45;;;;;;;;;;4924316;29;20023;-62
2020/12/29 08:31:30;;;;;;;18.33;8.30;;;;;;;;;;5010388;28;20042;-62
2020/12/29 08:33:58;;;;;;;18.60;8.07;;;;;;;;;;5012326;28;20398;-62
2020/12/29 08:36:25;;;;;;;20.60;8.50;;;;;;;;;;5012531;28;20533;-63
2020/12/29 08:39:10;;;;;;;20.15;9.00;;;;;;;;;;5011875;28;20088;-62
2020/12/29 08:41:40;;;;;;;21.45;9.63;;;;;;;;;;5012282;28;20061;-62
2020/12/29 08:44:07;;;;;;;19.23;8.35;;;;;;;;;;5012407;28;20105;-63
2020/12/29 08:46:35;;;;;;;21.92;8.73;;;;;;;;;;5012460;28;20036;-63
2020/12/29 08:49:02;;;;;;;20.58;8.55;;;;;;;;;;5011722;28;20030;-63
2020/12/29 08:51:29;;;;;;;20.23;8.80;;;;;;;;;;5011963;28;20381;-64
2020/12/29 08:54:08;;;;;;;18.55;8.05;;;;;;;;;;5011653;28;20022;-62
2020/12/29 08:56:34;;;;;;;20.85;8.63;;;;;;;;;;5011796;28;20036;-62
2020/12/29 08:59:42;;;;;;;21.58;9.50;;;;;;;;;;5011352;28;20121;-64
2020/12/29 09:02:08;;;;;;;20.92;9.30;;;;;;;;;;4932079;29;20031;-64
2020/12/29 09:04:39;;;;;;;22.33;9.20;;;;;;;;;;4931955;29;20388;-64
2020/12/29 09:07:06;;;;;;;21.35;9.00;;;;;;;;;;4973574;28;20183;-64
2020/12/29 09:09:33;;;;;;;20.50;9.25;;;;;;;;;;5010818;28;20022;-65
2020/12/29 09:12:10;;;;;;;20.83;8.87;;;;;;;;;;4993980;28;20054;-65
2020/12/29 09:14:37;;;;;;;21.52;9.57;;;;;;;;;;4993966;28;20075;-64
2020/12/29 09:17:04;;;;;;;22.05;9.70;;;;;;;;;;5011300;28;20033;-64
2020/12/29 09:19:31;;;;;;;25.38;10.50;;;;;;;;;;5011017;28;20045;-64
2020/12/29 09:22:23;;;;;;;25.48;11.82;;;;;;;;;;4993975;28;20024;-64
2020/12/29 09:24:52;;;;;;;26.50;12.15;;;;;;;;;;5007441;28;20034;-65
2020/12/29 09:27:28;;;;;;;25.85;11.27;;;;;;;;;;5011135;28;20054;-64
2020/12/29 09:29:54;;;;;;;27.00;11.63;;;;;;;;;;5011089;28;20026;-64
2020/12/29 09:32:20;;;;;;;27.10;12.23;;;;;;;;;;4993950;28;20037;-66
2020/12/29 09:34:47;;;;;;;25.00;13.38;;;;;;;;;;5011864;28;20029;-66
2020/12/29 09:37:13;;;;;;;25.45;15.20;;;;;;;;;;4993976;28;20373;-64
2020/12/29 09:39:39;;;;;;;25.40;13.50;;;;;;;;;;5011107;28;20080;-64
2020/12/29 09:42:06;;;;;;;30.20;14.73;;;;;;;;;;5011943;28;20049;-63
2020/12/29 09:44:32;;;;;;;26.92;15.02;;;;;;;;;;5011858;28;20079;-63
2020/12/29 09:46:58;;;;;;;30.30;16.25;;;;;;;;;;4993796;28;20483;-63
2020/12/29 09:49:24;;;;;;;25.05;15.30;;;;;;;;;;5011087;28;20026;-65
2020/12/29 09:51:53;;;;;;;26.83;14.55;;;;;;;;;;5011379;28;20473;-58
2020/12/29 09:54:20;;;;;;;30.65;15.73;;;;;;;;;;5011268;28;20109;-62
2020/12/29 09:56:46;;;;;;;24.67;15.55;;;;;;;;;;5011457;28;20026;-56
2020/12/29 09:59:12;;;;;;;29.70;15.52;;;;;;;;;;4992906;28;20496;-53
2020/12/29 10:01:39;;;;;;;29.35;15.73;;;;;;;;;;5011151;28;20062;-59
2020/12/29 10:04:05;;;;;;;24.50;12.30;;;;;;;;;;5011485;28;20119;-54
2020/12/29 10:06:31;;;;;;;25.35;16.08;;;;;;;;;;4993412;28;20040;-56
2020/12/29 10:08:57;;;;;;;24.48;14.35;;;;;;;;;;4992920;28;20022;-54
2020/12/29 10:11:26;;;;;;;26.67;15.52;;;;;;;;;;5011338;28;20148;-59
2020/12/29 10:13:52;;;;;;;26.85;13.60;;;;;;;;;;5011312;28;20069;-55
2020/12/29 10:16:18;;;;;;;27.15;14.02;;;;;;;;;;5011002;28;20034;-57
2020/12/29 10:18:44;;;;;;;24.25;13.43;;;;;;;;;;4992902;28;20029;-56
2020/12/29 10:21:11;;;;;;;26.88;14.25;;;;;;;;;;5010996;28;20456;-54
2020/12/29 10:23:37;;;;;;;28.23;14.18;;;;;;;;;;5011024;28;20080;-56
2020/12/29 10:26:03;;;;;;;27.17;14.30;;;;;;;;;;5011086;28;20026;-54
2020/12/29 10:28:30;;;;;;;26.88;14.27;;;;;;;;;;5010832;28;20164;-59
2020/12/29 10:30:57;;;;;;;24.77;12.38;;;;;;;;;;5011649;28;20466;-57
2020/12/29 10:33:23;;;;;;;25.45;13.20;;;;;;;;;;5011719;28;20442;-56
2020/12/29 10:35:49;;;;;;;24.77;13.63;;;;;;;;;;4993679;28;20025;-55
2020/12/29 10:38:15;;;;;;;27.55;12.90;;;;;;;;;;5014286;28;20505;-59
2020/12/29 10:40:42;;;;;;;26.23;12.80;;;;;;;;;;5014522;28;20030;-58
2020/12/29 10:43:08;;;;;;;26.23;13.80;;;;;;;;;;5015891;28;20044;-59
2020/12/29 10:45:34;;;;;;;28.10;12.85;;;;;;;;;;5014988;28;20057;-56
2020/12/29 10:48:00;;;;;;;29.33;15.15;;;;;;;;;;5014509;28;20363;-54
2020/12/29 10:50:26;;;;;;;25.65;12.40;;;;;;;;;;5014608;28;20022;-55
2020/12/29 10:52:52;;;;;;;30.50;13.45;;;;;;;;;;5014748;28;20382;-56
2020/12/29 10:55:18;;;;;;;26.38;13.35;;;;;;;;;;5014245;28;20150;-55
2020/12/29 10:57:44;;;;;;;30.83;13.65;;;;;;;;;;5014035;28;20034;-57
2020/12/29 11:00:10;;;;;;;30.00;14.68;;;;;;;;;;4996280;28;20029;-56
2020/12/29 11:02:36;;;;;;;28.33;13.93;;;;;;;;;;5014644;28;20565;-57
2020/12/29 11:05:02;;;;;;;28.67;13.50;;;;;;;;;;5014201;28;20034;-53
2020/12/29 11:07:28;;;;;;;29.27;12.45;;;;;;;;;;4993302;28;20033;-57
2020/12/29 11:09:54;;;;;;;28.08;12.52;;;;;;;;;;4995335;28;20102;-59
2020/12/29 11:12:20;;;;;;;26.30;13.20;;;;;;;;;;4996190;28;20516;-54
2020/12/29 11:14:46;;;;;;;24.83;12.15;;;1.50;99.90;;;;;;5014190;28;20053;-54
2020/12/29 11:17:11;;;;;;;28.45;12.13;;;3.40;99.90;;;;;;5017768;23;20056;-60
2020/12/29 11:19:37;;;;;;;26.25;11.43;;;3.40;99.90;;;;;;4994449;28;20407;-60
2020/12/29 11:22:03;;;;;;;25.63;10.98;;;3.50;99.90;;;;;;5012649;28;20022;-58
2020/12/29 11:24:29;;;;;;;26.17;10.77;;;3.60;99.90;;;;;;5012744;28;20032;-60
2020/12/29 11:26:54;;;;;;;24.38;9.70;;;3.60;99.90;;;;;;5012548;28;20030;-62
2020/12/29 11:29:20;;;;;;;24.52;11.80;;;3.50;99.90;;;;;;5011980;28;20371;-60
2020/12/29 11:31:45;;;;;;;26.35;11.68;;;3.50;99.90;;;;;;4978949;28;20060;-60
2020/12/29 11:34:11;;;;;;;27.17;11.85;;;3.50;99.90;;;;;;5012441;28;20470;-58
2020/12/29 11:36:36;;;;;;;23.45;10.45;;;3.50;99.90;;;;;;5012402;28;20033;-60
2020/12/29 11:39:02;;;;;;;33.13;12.13;;;3.50;99.90;;;;;;5012082;28;20077;-61
2020/12/29 11:41:28;;;;;;;29.90;14.50;;;3.50;99.90;;;;;;5012354;28;20405;-59
2020/12/29 11:43:54;;;;;;;27.40;11.70;;;3.50;99.90;;;;;;4994035;28;20034;-59
2020/12/29 11:46:19;;;;;;;28.15;13.88;;;3.60;99.90;;;;;;5011794;28;20114;-60
2020/12/29 11:48:45;;;;;;;25.45;12.82;;;3.50;99.90;;;;;;5010910;28;20026;-56
2020/12/29 11:51:11;;;;;;;35.30;14.68;;;3.60;99.90;;;;;;4994652;28;20060;-60
2020/12/29 11:53:37;;;;;;;30.65;13.23;;;3.60;99.90;;;;;;5012272;28;20061;-60
2020/12/29 11:56:02;;;;;;;29.92;15.60;;;3.60;99.90;;;;;;5012709;28;20029;-61
2020/12/29 11:58:29;;;;;;;33.83;15.48;;;3.60;99.90;;;;;;4993981;28;20132;-62
2020/12/29 12:00:54;;;;;;;34.42;16.50;;;3.60;99.90;;;;;;5010496;28;20045;-61
2020/12/29 12:03:20;;;;;;;36.03;16.85;;;3.70;99.90;;;;;;5010140;28;20109;-60
2020/12/29 12:05:46;;;;;;;44.95;17.30;;;3.70;99.90;;;;;;4992645;28;20114;-61
2020/12/29 12:08:11;;;;;;;34.80;16.80;;;3.70;99.90;;;;;;5010264;28;20069;-59
2020/12/29 12:10:37;;;;;;;35.78;19.88;;;3.80;99.90;;;;;;5010674;28;20477;-59
2020/12/29 12:13:03;;;;;;;34.72;17.52;;;3.80;99.90;;;;;;5011560;28;20390;-59
2020/12/29 12:15:29;;;;;;;37.92;19.23;;;3.80;99.90;;;;;;5011568;28;20041;-61
2020/12/29 12:17:55;;;;;;;31.25;15.70;;;3.70;99.90;;;;;;4994135;28;20033;-60
2020/12/29 12:20:20;;;;;;;34.90;19.02;;;3.70;99.90;;;;;;5011362;28;20185;-60
2020/12/29 12:22:46;;;;;;;36.35;17.90;;;3.70;99.90;;;;;;5011587;28;20028;-60
2020/12/29 12:25:12;;;;;;;40.58;20.20;;;3.70;99.90;;;;;;5011681;28;20459;-59
2020/12/29 12:27:37;;;;;;;39.83;21.25;;;3.70;99.90;;;;;;5011470;28;20092;-59
2020/12/29 12:30:04;;;;;;;40.10;21.67;;;3.60;99.90;;;;;;5011067;28;20064;-61
2020/12/29 12:32:29;;;;;;;42.85;21.00;;;3.60;99.90;;;;;;5011471;28;20030;-56
2020/12/29 12:34:55;;;;;;;41.65;19.80;;;3.60;99.90;;;;;;5011324;28;20444;-57
2020/12/29 12:37:20;;;;;;;48.17;24.98;;;3.60;99.90;;;;;;4993563;28;20068;-61
2020/12/29 12:39:46;;;;;;;30.05;14.60;;;3.60;99.90;;;;;;5010894;28;20040;-60
2020/12/29 12:42:12;;;;;;;39.35;18.17;;;3.60;99.90;;;;;;5011164;28;20026;-58
2020/12/29 12:44:39;;;;;;;46.53;24.98;;;3.60;99.90;;;;;;5010922;28;20478;-58
2020/12/29 12:47:05;;;;;;;47.28;25.63;;;3.50;99.90;;;;;;5011173;28;20021;-56
2020/12/29 12:49:31;;;;;;;41.88;21.52;;;3.60;99.90;;;;;;5010855;28;20034;-60
2020/12/29 12:51:57;;;;;;;54.58;25.42;;;3.60;99.90;;;;;;5011190;28;20091;-57
2020/12/29 12:54:23;;;;;;;54.13;26.98;;;3.50;99.90;;;;;;5010768;28;20030;-60
2020/12/29 12:56:53;;;;;;;44.92;21.90;;;3.50;99.90;;;;;;5011029;28;20025;-58
2020/12/29 12:59:18;;;;;;;42.08;22.13;;;3.50;99.90;;;;;;5009942;28;20049;-58
2020/12/29 13:01:44;;;;;;;38.65;20.00;;;3.50;99.90;;;;;;5010617;28;20477;-60
2020/12/29 13:04:09;;;;;;;41.88;19.55;;;3.50;99.90;;;;;;5010729;28;20029;-59
2020/12/29 13:06:35;;;;;;;52.72;22.33;;;3.50;99.90;;;;;;4992984;28;20076;-61
2020/12/29 13:09:01;;;;;;;51.17;25.80;;;3.50;99.90;;;;;;5010648;28;20022;-59
2020/12/29 13:11:27;;;;;;;44.90;21.50;;;3.50;99.90;;;;;;5010584;28;20054;-60
2020/12/29 13:13:53;;;;;;;47.72;25.27;;;3.50;99.90;;;;;;5011013;28;20388;-61
2020/12/29 13:16:20;;;;;;;45.40;22.67;;;3.50;99.90;;;;;;4992947;28;20125;-57
2020/12/29 13:18:47;;;;;;;52.33;22.95;;;3.40;99.90;;;;;;5010193;28;20038;-53
2020/12/29 13:21:13;;;;;;;48.97;26.98;;;3.50;99.90;;;;;;5010482;28;20026;-52
2020/12/29 13:23:39;;;;;;;52.47;24.73;;;3.50;99.90;;;;;;5010390;28;20026;-59
2020/12/29 13:26:06;;;;;;;51.38;26.05;;;3.50;99.90;;;;;;4992804;28;20436;-63
2020/12/29 13:28:32;;;;;;;46.90;21.30;;;3.50;99.90;;;;;;5010113;28;20052;-58
2020/12/29 13:30:58;;;;;;;52.15;26.60;;;3.50;99.90;;;;;;5011158;28;20183;-57
2020/12/29 13:33:23;;;;;;;49.10;23.83;;;3.60;99.90;;;;;;5010485;28;20026;-59
2020/12/29 13:35:49;;;;;;;49.40;25.33;;;3.60;99.90;;;;;;5010479;28;20070;-59
2020/12/29 13:38:16;;;;;;;42.72;20.77;;;3.60;99.90;;;;;;4992590;28;20025;-59
2020/12/29 13:40:42;;;;;;;58.22;28.23;;;3.60;99.90;;;;;;5009879;28;20022;-59
2020/12/29 13:43:07;;;;;;;50.75;25.48;;;3.60;99.90;;;;;;5010192;28;20029;-59
2020/12/29 13:45:33;;;;;;;47.90;26.17;;;3.60;99.90;;;;;;5010080;28;20437;-55
2020/12/29 13:47:58;;;;;;;47.35;22.40;;;3.60;99.90;;;;;;5009440;28;20019;-57
2020/12/29 13:50:24;;;;;;;45.83;23.70;;;3.70;99.90;;;;;;4635929;28;9999984;-60
2020/12/29 13:52:50;;;;;;;47.67;23.58;;;3.70;99.90;;;;;;4994180;28;20596;-59
2020/12/29 13:55:16;;;;;;;49.17;21.65;;;3.60;99.90;;;;;;4996435;28;20026;-59
2020/12/29 13:57:42;;;;;;;40.28;18.73;;;3.70;99.90;;;;;;4993968;28;20529;-57
2020/12/29 14:00:07;;;;;;;51.22;24.55;;;3.70;99.90;;;;;;4988743;28;20120;-59
2020/12/29 14:02:33;;;;;;;48.72;23.35;;;3.70;99.90;;;;;;4989133;28;20063;-58
2020/12/29 14:04:59;;;;;;;45.63;23.50;;;3.70;99.90;;;;;;4990710;28;20504;-61
2020/12/29 14:07:24;;;;;;;40.78;19.17;;;3.60;99.90;;;;;;5006765;28;20029;-59
2020/12/29 14:09:50;;;;;;;52.17;25.98;;;3.70;99.90;;;;;;4988782;28;20022;-57